Time;durP1;ratioP1;P1;durP2;ratioP2;P2;SDS_P1;SDS_P2;PMS_P1;PMS_P2;Temp;Humidity;BMP_temperature;BMP_pressure;BME280_temperature;BME280_humidity;BME280_pressure;Samples;Min_cycle;Max_cycle;Signal;HPM_P1;HPM_P2
2023/06/17 00:00:32;;;;;;;4.68;3.15;;;24.50;61.90;;;;;;5014546;28;20105;-72
2023/06/17 00:02:57;;;;;;;5.60;3.47;;;24.50;62.10;;;;;;5014473;28;20395;-77
2023/06/17 00:05:26;;;;;;;5.88;3.63;;;24.50;61.90;;;;;;5014534;28;20513;-77
2023/06/17 00:07:52;;;;;;;3.88;3.40;;;24.40;61.20;;;;;;5028051;28;20498;-72
2023/06/17 00:10:17;;;;;;;5.25;3.63;;;24.40;61.10;;;;;;5033474;28;20116;-71
2023/06/17 00:12:43;;;;;;;9.75;3.75;;;24.40;60.90;;;;;;5033775;28;20064;-71
2023/06/17 00:15:10;;;;;;;5.57;3.67;;;24.40;60.70;;;;;;5034063;28;20022;-71
2023/06/17 00:17:36;;;;;;;7.95;4.03;;;24.40;60.60;;;;;;5033934;28;20490;-71
2023/06/17 00:20:11;;;;;;;5.85;3.22;;;24.40;60.70;;;;;;5034030;28;20071;-71
2023/06/17 00:22:36;;;;;;;5.32;3.55;;;24.40;61.00;;;;;;5033417;28;20033;-71
2023/06/17 00:25:02;;;;;;;6.00;3.63;;;24.30;60.90;;;;;;5033937;28;20060;-71
2023/06/17 00:27:28;;;;;;;5.05;3.30;;;24.30;61.10;;;;;;5033620;28;20104;-71
2023/06/17 00:29:54;;;;;;;5.85;3.78;;;24.30;61.30;;;;;;5033303;28;20064;-72
2023/06/17 00:32:19;;;;;;;5.50;3.40;;;24.30;61.20;;;;;;5033597;28;20045;-71
2023/06/17 00:34:45;;;;;;;4.35;3.20;;;24.30;61.10;;;;;;5033733;28;20053;-71
2023/06/17 00:37:10;;;;;;;5.60;3.50;;;24.30;61.20;;;;;;5033452;28;20463;-71
2023/06/17 00:39:36;;;;;;;6.65;3.45;;;24.20;61.40;;;;;;5033675;28;20080;-72
2023/06/17 00:42:02;;;;;;;7.75;4.00;;;24.20;61.40;;;;;;5033455;28;20033;-72
2023/06/17 00:44:27;;;;;;;5.20;3.33;;;24.20;61.30;;;;;;5033672;28;20079;-71
2023/06/17 00:46:54;;;;;;;5.30;3.35;;;24.10;61.40;;;;;;5033387;28;20021;-71
2023/06/17 00:49:31;;;;;;;7.50;3.45;;;24.10;61.40;;;;;;5033611;28;20029;-71
2023/06/17 00:51:59;;;;;;;5.03;3.10;;;24.10;61.50;;;;;;5033028;28;20029;-72
2023/06/17 00:54:24;;;;;;;6.78;3.67;;;24.10;61.50;;;;;;5033442;28;20022;-71
2023/06/17 00:56:53;;;;;;;3.95;3.35;;;24.00;61.40;;;;;;5015476;28;20083;-72
2023/06/17 00:59:18;;;;;;;6.13;3.35;;;24.00;61.30;;;;;;5033530;28;20030;-74
2023/06/17 01:01:44;;;;;;;7.25;3.50;;;24.00;61.40;;;;;;5033165;28;20021;-72
2023/06/17 01:04:10;;;;;;;6.70;3.40;;;24.00;61.50;;;;;;5033131;28;20156;-72
2023/06/17 01:06:44;;;;;;;3.97;3.30;;;24.00;61.50;;;;;;5032786;28;20021;-72
2023/06/17 01:09:15;;;;;;;6.60;3.53;;;23.90;61.70;;;;;;5033041;28;20112;-71
2023/06/17 01:11:43;;;;;;;6.75;3.08;;;23.90;61.50;;;;;;5033103;28;20036;-75
2023/06/17 01:14:10;;;;;;;5.88;4.13;;;23.90;61.40;;;;;;5033084;28;20047;-71
2023/06/17 01:16:41;;;;;;;7.45;3.45;;;23.80;61.40;;;;;;5033328;28;20022;-72
2023/06/17 01:19:18;;;;;;;7.13;3.78;;;23.80;61.40;;;;;;5015962;28;20025;-71
2023/06/17 01:21:48;;;;;;;5.53;3.58;;;23.80;61.40;;;;;;5032748;28;20021;-71
2023/06/17 01:24:30;;;;;;;6.07;3.78;;;23.80;61.30;;;;;;5033173;28;20034;-71
2023/06/17 01:27:02;;;;;;;6.78;3.50;;;23.70;61.30;;;;;;5033211;28;20104;-71
2023/06/17 01:29:38;;;;;;;8.77;4.13;;;23.70;61.30;;;;;;5032792;28;20026;-71
2023/06/17 01:32:05;;;;;;;7.57;4.25;;;23.70;61.00;;;;;;5033095;28;20032;-71
2023/06/17 01:34:51;;;;;;;7.45;3.38;;;23.60;61.10;;;;;;5032936;28;20017;-71
2023/06/17 01:37:25;;;;;;;5.63;2.92;;;23.60;61.10;;;;;;5033136;28;20496;-71
2023/06/17 01:39:56;;;;;;;6.15;3.67;;;23.60;61.10;;;;;;5032737;28;20032;-71
2023/06/17 01:42:28;;;;;;;4.68;3.15;;;23.60;61.40;;;;;;5035964;28;20080;-71
2023/06/17 01:44:56;;;;;;;6.65;2.95;;;23.50;61.50;;;;;;5036822;28;20032;-71
2023/06/17 01:47:21;;;;;;;5.00;3.58;;;23.50;60.80;;;;;;5036918;28;20386;-71
2023/06/17 01:49:47;;;;;;;6.45;3.60;;;23.50;61.00;;;;;;5036273;28;20470;-70
2023/06/17 01:52:12;;;;;;;4.22;3.35;;;23.50;61.00;;;;;;5019037;28;20087;-71
2023/06/17 01:54:38;;;;;;;3.63;3.10;;;23.40;61.00;;;;;;5036464;28;20025;-70
2023/06/17 01:57:04;;;;;;;3.10;2.75;;;23.40;61.10;;;;;;5036727;28;20467;-70
2023/06/17 01:59:30;;;;;;;7.68;3.35;;;23.40;60.60;;;;;;5036652;28;20018;-71
2023/06/17 02:01:56;;;;;;;3.90;2.60;;;23.40;60.20;;;;;;5036698;28;20488;-70
2023/06/17 02:04:21;;;;;;;6.63;3.22;;;23.40;60.50;;;;;;5036036;28;20040;-70
2023/06/17 02:06:47;;;;;;;2.97;2.50;;;23.30;60.90;;;;;;5036430;28;20375;-71
2023/06/17 02:09:13;;;;;;;5.03;3.30;;;23.30;61.10;;;;;;5036207;28;20481;-70
2023/06/17 02:11:38;;;;;;;5.45;3.40;;;23.30;60.80;;;;;;5036371;28;20378;-70
2023/06/17 02:14:04;;;;;;;4.40;3.28;;;23.30;60.70;;;;;;5036230;28;20486;-70
2023/06/17 02:16:30;;;;;;;5.32;2.92;;;23.30;60.90;;;;;;5036215;28;20029;-70
2023/06/17 02:18:56;;;;;;;7.80;3.20;;;23.20;60.50;;;;;;5036056;28;20055;-70
2023/06/17 02:21:22;;;;;;;6.45;3.38;;;23.20;61.00;;;;;;5036299;28;20374;-71
2023/06/17 02:23:49;;;;;;;5.28;3.33;;;23.20;61.10;;;;;;5035795;28;20470;-70
2023/06/17 02:26:18;;;;;;;5.50;3.20;;;23.20;61.10;;;;;;5036240;28;20433;-71
2023/06/17 02:28:43;;;;;;;8.52;3.92;;;23.10;61.10;;;;;;5035916;28;20064;-71
2023/06/17 02:31:09;;;;;;;6.10;3.67;;;23.10;61.50;;;;;;5035980;28;20419;-70
2023/06/17 02:33:35;;;;;;;4.72;3.53;;;23.10;61.70;;;;;;5035642;28;20525;-71
2023/06/17 02:36:01;;;;;;;6.10;4.10;;;23.10;61.50;;;;;;5035856;28;20466;-70
2023/06/17 02:38:28;;;;;;;6.25;4.35;;;23.10;61.20;;;;;;5035824;28;20024;-70
2023/06/17 02:40:54;;;;;;;6.03;3.55;;;23.10;61.00;;;;;;5035742;28;20026;-70
2023/06/17 02:43:20;;;;;;;4.63;3.83;;;23.10;60.70;;;;;;5035911;28;20034;-70
2023/06/17 02:45:46;;;;;;;3.90;3.20;;;23.00;60.60;;;;;;5035564;28;20109;-70
2023/06/17 02:48:11;;;;;;;8.65;4.18;;;23.00;60.60;;;;;;5035612;28;20485;-70
2023/06/17 02:50:37;;;;;;;5.47;3.75;;;23.00;60.80;;;;;;5035488;28;20075;-70
2023/06/17 02:53:04;;;;;;;4.55;4.00;;;23.00;60.90;;;;;;5034693;28;20028;-70
2023/06/17 02:55:30;;;;;;;6.13;3.97;;;23.00;60.70;;;;;;5035514;28;20022;-70
2023/06/17 02:57:56;;;;;;;5.18;3.67;;;23.00;60.70;;;;;;5035603;28;20083;-70
2023/06/17 03:00:22;;;;;;;4.55;3.80;;;22.90;60.70;;;;;;5035392;28;20021;-70
2023/06/17 03:02:48;;;;;;;4.50;4.10;;;22.90;60.70;;;;;;5035000;28;20501;-70
2023/06/17 03:05:14;;;;;;;3.80;3.30;;;22.90;60.90;;;;;;5035410;28;20109;-70
2023/06/17 03:07:40;;;;;;;5.93;3.63;;;22.90;61.10;;;;;;5035201;28;20064;-70
2023/06/17 03:10:07;;;;;;;5.22;3.47;;;22.90;61.20;;;;;;5035226;28;20438;-71
2023/06/17 03:12:32;;;;;;;3.70;3.03;;;22.90;61.20;;;;;;5035151;28;20048;-71
2023/06/17 03:14:58;;;;;;;4.40;3.05;;;22.80;60.90;;;;;;5035233;28;20470;-70
2023/06/17 03:17:24;;;;;;;13.27;3.30;;;22.80;60.60;;;;;;5034995;28;20022;-71
2023/06/17 03:19:50;;;;;;;4.60;3.38;;;22.80;60.50;;;;;;5034893;28;20079;-70
2023/06/17 03:22:16;;;;;;;4.30;2.95;;;22.80;60.70;;;;;;5017363;28;20482;-71
2023/06/17 03:24:42;;;;;;;5.55;3.30;;;22.70;60.90;;;;;;5035087;28;20025;-70
2023/06/17 03:27:07;;;;;;;5.80;3.20;;;22.70;60.60;;;;;;5035020;28;20114;-71
2023/06/17 03:29:36;;;;;;;4.65;3.42;;;22.70;60.50;;;;;;5034991;28;20025;-70
2023/06/17 03:32:02;;;;;;;8.10;3.30;;;22.70;60.40;;;;;;5034383;28;20369;-71
2023/06/17 03:34:28;;;;;;;6.82;3.03;;;22.60;60.30;;;;;;5034789;28;20018;-70
2023/06/17 03:36:53;;;;;;;3.83;3.33;;;22.60;60.40;;;;;;5034711;28;20030;-73
2023/06/17 03:39:19;;;;;;;5.68;4.15;;;22.60;60.50;;;;;;5034826;28;20490;-72
2023/06/17 03:41:45;;;;;;;4.72;3.67;;;22.60;60.60;;;;;;5034415;28;20053;-71
2023/06/17 03:44:10;;;;;;;6.88;3.70;;;22.60;60.50;;;;;;5034675;28;20052;-70
2023/06/17 03:46:36;;;;;;;5.97;3.65;;;22.50;60.50;;;;;;5034133;28;20025;-71
2023/06/17 03:49:02;;;;;;;5.90;3.60;;;22.60;60.50;;;;;;5034638;28;20105;-72
2023/06/17 03:51:28;;;;;;;5.30;4.15;;;22.50;60.50;;;;;;5034608;28;20493;-71
2023/06/17 03:53:53;;;;;;;6.05;3.50;;;22.50;60.70;;;;;;5034459;28;20022;-70
2023/06/17 03:56:19;;;;;;;5.45;3.72;;;22.50;60.70;;;;;;5034386;28;20096;-70
2023/06/17 03:58:44;;;;;;;7.38;3.50;;;22.50;60.60;;;;;;5034338;28;20026;-71
2023/06/17 04:01:12;;;;;;;4.75;3.75;;;22.50;60.50;;;;;;5034047;28;20036;-71
2023/06/17 04:03:40;;;;;;;5.60;3.28;;;22.50;60.70;;;;;;5033926;28;20180;-70
2023/06/17 04:06:06;;;;;;;7.05;3.72;;;22.40;60.60;;;;;;5034098;28;20415;-71
2023/06/17 04:08:32;;;;;;;4.50;3.75;;;22.40;60.60;;;;;;5033989;28;20024;-70
2023/06/17 04:10:59;;;;;;;4.60;3.47;;;22.40;60.70;;;;;;5033905;28;20055;-70
2023/06/17 04:13:24;;;;;;;10.70;3.72;;;22.40;60.80;;;;;;5034187;28;20521;-71
2023/06/17 04:15:50;;;;;;;7.82;3.78;;;22.40;60.80;;;;;;5033683;28;20117;-70
2023/06/17 04:18:15;;;;;;;5.65;3.50;;;22.40;61.00;;;;;;5033876;28;20029;-70
2023/06/17 04:20:41;;;;;;;5.57;3.25;;;22.40;60.80;;;;;;5033904;28;20056;-71
2023/06/17 04:23:07;;;;;;;6.47;3.63;;;22.40;61.00;;;;;;5016032;28;20057;-70
2023/06/17 04:25:36;;;;;;;7.32;3.55;;;22.40;61.10;;;;;;5033773;28;20025;-70
2023/06/17 04:28:06;;;;;;;3.90;3.50;;;22.40;61.30;;;;;;5033684;28;20080;-70
2023/06/17 04:30:33;;;;;;;6.28;3.50;;;22.30;61.40;;;;;;5033570;28;20025;-70
2023/06/17 04:32:59;;;;;;;4.47;3.45;;;22.40;61.50;;;;;;5033564;28;20037;-71
2023/06/17 04:35:28;;;;;;;5.90;3.97;;;22.30;61.70;;;;;;5033816;28;20025;-71
2023/06/17 04:37:54;;;;;;;3.90;3.45;;;22.30;61.90;;;;;;5015797;28;20029;-70
2023/06/17 04:40:24;;;;;;;6.78;3.10;;;22.30;62.00;;;;;;5015924;28;20024;-70
2023/06/17 04:42:50;;;;;;;8.15;4.05;;;22.30;62.20;;;;;;5033361;28;20071;-70
2023/06/17 04:45:17;;;;;;;4.03;3.63;;;22.30;62.30;;;;;;5033298;28;20096;-70
2023/06/17 04:47:46;;;;;;;4.97;3.70;;;22.30;62.50;;;;;;5033503;28;20022;-71
2023/06/17 04:50:15;;;;;;;4.00;3.28;;;22.30;62.50;;;;;;5033513;28;20025;-70
2023/06/17 04:52:44;;;;;;;5.72;3.70;;;22.30;62.50;;;;;;5033169;28;20562;-70
2023/06/17 04:55:14;;;;;;;6.13;3.60;;;22.30;62.30;;;;;;5033568;28;20083;-70
2023/06/17 04:57:43;;;;;;;6.45;3.45;;;22.30;62.40;;;;;;5032821;28;20013;-70
2023/06/17 05:00:10;;;;;;;5.43;3.30;;;22.30;62.30;;;;;;5033467;28;20083;-70
2023/06/17 05:02:37;;;;;;;5.95;3.47;;;22.30;62.40;;;;;;5033066;28;20083;-70
2023/06/17 05:05:03;;;;;;;4.53;3.88;;;22.30;62.40;;;;;;5032427;28;20076;-70
2023/06/17 05:07:29;;;;;;;7.75;3.97;;;22.30;62.50;;;;;;5032414;28;20025;-70
2023/06/17 05:09:55;;;;;;;6.20;4.03;;;22.30;62.70;;;;;;5032924;28;20038;-71
2023/06/17 05:12:20;;;;;;;6.22;4.22;;;22.30;62.70;;;;;;5032820;28;20409;-71
2023/06/17 05:14:46;;;;;;;6.97;3.47;;;22.30;63.10;;;;;;5015382;28;20483;-71
2023/06/17 05:17:11;;;;;;;5.90;3.53;;;22.30;63.30;;;;;;5032840;28;20028;-71
2023/06/17 05:19:37;;;;;;;6.78;3.88;;;22.30;63.40;;;;;;5033103;28;20352;-71
2023/06/17 05:22:02;;;;;;;5.28;3.90;;;22.30;63.20;;;;;;5032961;28;20068;-71
2023/06/17 05:24:28;;;;;;;6.82;4.45;;;22.30;63.10;;;;;;5033046;28;20132;-70
2023/06/17 05:26:54;;;;;;;6.15;4.18;;;22.30;63.20;;;;;;5032877;28;20029;-71
2023/06/17 05:29:19;;;;;;;4.15;3.72;;;22.30;63.30;;;;;;5032826;28;20355;-71
2023/06/17 05:31:45;;;;;;;4.93;3.75;;;22.30;63.20;;;;;;5032987;28;20441;-71
2023/06/17 05:34:10;;;;;;;6.75;4.38;;;22.30;63.20;;;;;;5026493;28;20535;-71
2023/06/17 05:36:36;;;;;;;6.68;4.28;;;22.30;63.20;;;;;;5026966;28;20160;-68
2023/06/17 05:39:01;;;;;;;4.18;3.78;;;22.40;63.60;;;;;;5032983;28;20053;-68
2023/06/17 05:41:27;;;;;;;8.73;4.10;;;22.40;63.40;;;;;;5020363;28;20041;-68
2023/06/17 05:43:52;;;;;;;4.95;3.70;;;22.40;63.40;;;;;;5025587;28;20490;-69
2023/06/17 05:46:18;;;;;;;6.60;3.92;;;22.40;63.50;;;;;;5015656;28;20038;-69
2023/06/17 05:48:43;;;;;;;4.90;4.00;;;22.40;63.40;;;;;;5026508;28;20029;-69
2023/06/17 05:51:09;;;;;;;4.53;3.67;;;22.50;63.40;;;;;;5025486;28;20471;-68
2023/06/17 05:53:35;;;;;;;6.68;4.30;;;22.50;63.10;;;;;;5015018;28;20034;-68
2023/06/17 05:56:00;;;;;;;6.65;4.35;;;22.50;62.70;;;;;;5018063;28;20013;-68
2023/06/17 05:58:26;;;;;;;5.60;3.85;;;22.60;62.50;;;;;;5019427;28;20072;-68
2023/06/17 06:00:51;;;;;;;6.80;4.53;;;22.70;62.20;;;;;;5024495;28;20025;-68
2023/06/17 06:03:17;;;;;;;5.28;3.70;;;22.70;62.30;;;;;;5014399;28;20045;-69
2023/06/17 06:05:42;;;;;;;7.15;4.20;;;22.80;62.50;;;;;;5023376;28;20052;-68
2023/06/17 06:08:08;;;;;;;5.85;4.18;;;22.80;62.50;;;;;;5012508;28;20036;-68
2023/06/17 06:10:34;;;;;;;8.32;3.80;;;22.90;62.90;;;;;;5014488;28;20461;-68
2023/06/17 06:12:59;;;;;;;11.18;4.60;;;22.90;62.80;;;;;;5030043;28;20059;-68
2023/06/17 06:15:25;;;;;;;7.47;4.50;;;23.00;63.20;;;;;;5015877;28;20045;-68
2023/06/17 06:17:51;;;;;;;5.95;4.00;;;23.00;62.70;;;;;;5012348;28;20113;-68
2023/06/17 06:20:17;;;;;;;6.40;3.88;;;23.10;62.60;;;;;;5012370;28;20022;-68
2023/06/17 06:22:43;;;;;;;7.32;4.00;;;23.20;62.10;;;;;;5014932;28;20036;-68
2023/06/17 06:25:08;;;;;;;7.10;3.90;;;23.20;62.10;;;;;;5021268;28;20034;-68
2023/06/17 06:27:34;;;;;;;9.13;4.13;;;23.30;61.90;;;;;;5014947;28;20029;-68
2023/06/17 06:30:00;;;;;;;6.50;4.00;;;23.30;61.60;;;;;;5030616;28;20022;-68
2023/06/17 06:32:25;;;;;;;8.25;4.03;;;23.40;61.70;;;;;;5019343;28;20056;-69
2023/06/17 06:34:51;;;;;;;6.28;4.20;;;23.50;61.80;;;;;;5024152;28;20079;-68
2023/06/17 06:37:16;;;;;;;6.50;3.88;;;23.50;61.90;;;;;;5023935;28;20014;-69
2023/06/17 06:39:45;;;;;;;13.48;4.20;;;23.50;62.10;;;;;;5020037;28;20445;-69
2023/06/17 06:42:11;;;;;;;5.53;3.28;;;23.60;61.70;;;;;;5022846;28;20066;-69
2023/06/17 06:44:37;;;;;;;6.00;3.80;;;23.60;61.60;;;;;;5033294;28;20044;-68
2023/06/17 06:47:02;;;;;;;7.68;4.00;;;23.70;61.80;;;;;;5028466;28;20026;-68
2023/06/17 06:49:28;;;;;;;6.95;3.40;;;23.80;61.80;;;;;;5015053;28;20029;-68
2023/06/17 06:51:53;;;;;;;7.15;3.30;;;23.80;61.60;;;;;;5015193;28;20029;-68
2023/06/17 06:54:19;;;;;;;7.07;3.53;;;23.90;61.50;;;;;;5017355;28;20494;-69
2023/06/17 06:56:45;;;;;;;5.63;3.20;;;24.00;60.80;;;;;;5026632;28;20378;-68
2023/06/17 06:59:10;;;;;;;5.28;3.33;;;24.00;60.40;;;;;;5015926;28;20029;-68
2023/06/17 07:01:36;;;;;;;6.15;3.33;;;24.10;60.20;;;;;;5027939;28;20025;-67
2023/06/17 07:04:02;;;;;;;4.35;3.35;;;23.90;60.40;;;;;;5029656;28;20116;-66
2023/06/17 07:06:27;;;;;;;11.48;3.25;;;23.80;60.60;;;;;;5018759;28;20022;-68
2023/06/17 07:08:53;;;;;;;5.82;3.85;;;23.70;59.70;;;;;;5025523;28;20545;-67
2023/06/17 07:11:18;;;;;;;5.18;2.85;;;23.60;60.60;;;;;;5027678;28;20510;-68
2023/06/17 07:13:44;;;;;;;5.60;2.38;;;23.60;61.30;;;;;;5027304;28;20104;-69
2023/06/17 07:16:09;;;;;;;4.57;2.67;;;23.70;60.50;;;;;;5027262;28;20544;-66
2023/06/17 07:18:35;;;;;;;4.85;2.35;;;24.00;60.30;;;;;;5015788;28;20335;-68
2023/06/17 07:21:01;;;;;;;4.53;2.65;;;24.10;60.10;;;;;;5027056;28;20378;-68
2023/06/17 07:23:27;;;;;;;5.50;2.70;;;24.20;60.00;;;;;;5032779;28;20038;-68
2023/06/17 07:25:52;;;;;;;3.85;2.97;;;24.30;60.20;;;;;;5033351;28;20026;-69
2023/06/17 07:28:18;;;;;;;3.38;2.72;;;24.40;60.70;;;;;;5034245;28;20034;-68
2023/06/17 07:30:44;;;;;;;6.25;2.47;;;24.50;60.30;;;;;;5031116;28;20051;-67
2023/06/17 07:33:09;;;;;;;5.00;2.40;;;24.60;59.70;;;;;;5030085;28;20032;-68
2023/06/17 07:35:35;;;;;;;4.03;2.40;;;24.70;59.70;;;;;;5030765;28;20441;-69
2023/06/17 07:38:01;;;;;;;4.22;2.33;;;24.80;58.90;;;;;;5031567;28;20022;-68
2023/06/17 07:40:26;;;;;;;3.55;2.58;;;24.80;58.70;;;;;;5028975;28;20017;-68
2023/06/17 07:42:52;;;;;;;3.85;2.65;;;24.90;58.90;;;;;;5029592;28;20041;-69
2023/06/17 07:45:17;;;;;;;8.52;2.58;;;25.00;58.80;;;;;;5025231;28;20105;-68
2023/06/17 07:47:43;;;;;;;4.20;2.70;;;25.00;59.10;;;;;;5030262;28;20029;-69
2023/06/17 07:50:09;;;;;;;5.78;3.00;;;25.10;59.00;;;;;;5028884;28;20029;-69
2023/06/17 07:52:35;;;;;;;4.65;2.55;;;25.10;59.10;;;;;;5029712;28;20094;-68
2023/06/17 07:55:04;;;;;;;5.53;2.90;;;25.20;58.70;;;;;;5027876;28;20451;-69
2023/06/17 07:57:30;;;;;;;7.40;2.88;;;25.20;59.00;;;;;;5029039;28;20539;-69
2023/06/17 07:59:56;;;;;;;7.63;2.92;;;25.30;59.50;;;;;;5029209;28;20033;-75
2023/06/17 08:02:22;;;;;;;3.20;2.80;;;25.40;59.30;;;;;;5026681;28;20033;-71
2023/06/17 08:04:49;;;;;;;6.78;3.10;;;25.40;58.90;;;;;;5016553;28;20642;-69
2023/06/17 08:07:15;;;;;;;5.75;2.70;;;25.50;59.20;;;;;;5026821;28;20075;-68
2023/06/17 08:09:41;;;;;;;6.60;2.92;;;25.50;58.50;;;;;;5017161;28;20040;-69
2023/06/17 08:12:07;;;;;;;6.82;2.88;;;25.60;59.10;;;;;;5026144;28;20021;-69
2023/06/17 08:14:32;;;;;;;8.50;2.90;;;25.60;59.00;;;;;;5012859;28;20153;-68
2023/06/17 08:16:58;;;;;;;4.75;3.15;;;25.70;60.30;;;;;;5023932;28;20455;-68
2023/06/17 08:19:23;;;;;;;4.50;2.50;;;25.70;59.20;;;;;;5032107;28;20485;-69
2023/06/17 08:21:49;;;;;;;5.60;3.15;;;25.70;61.50;;;;;;5026643;28;20111;-68
2023/06/17 08:24:24;;;;;;;8.50;3.45;;;25.80;59.60;;;;;;5028236;28;20034;-69
2023/06/17 08:26:50;;;;;;;4.68;3.10;;;25.80;58.50;;;;;;5027991;28;20029;-70
2023/06/17 08:29:17;;;;;;;7.82;3.20;;;25.90;59.00;;;;;;5027783;28;20030;-68
2023/06/17 08:31:44;;;;;;;4.90;2.90;;;25.90;61.10;;;;;;5024212;28;20807;-69
2023/06/17 08:34:11;;;;;;;4.80;2.90;;;26.00;60.30;;;;;;5027040;28;20751;-66
2023/06/17 08:36:40;;;;;;;8.95;3.20;;;26.00;60.40;;;;;;5028406;28;20024;-67
2023/06/17 08:39:06;;;;;;;4.88;2.85;;;26.00;58.70;;;;;;5027307;28;20501;-68
2023/06/17 08:41:39;;;;;;;4.88;3.00;;;26.10;58.50;;;;;;5030630;28;20037;-67
2023/06/17 08:44:06;;;;;;;5.43;2.85;;;26.20;58.00;;;;;;5013945;28;20397;-69
2023/06/17 08:46:32;;;;;;;10.68;2.85;;;26.20;58.10;;;;;;5028944;28;20026;-67
2023/06/17 08:48:58;;;;;;;6.05;2.88;;;26.20;62.50;;;;;;5029130;28;20119;-68
2023/06/17 08:51:25;;;;;;;4.43;3.03;;;26.20;61.10;;;;;;5025387;28;20021;-67
2023/06/17 08:53:51;;;;;;;6.13;2.75;;;26.20;63.00;;;;;;5028231;28;20026;-67
2023/06/17 08:56:17;;;;;;;5.88;3.17;;;26.20;63.50;;;;;;5028090;28;20029;-67
2023/06/17 08:58:44;;;;;;;3.33;2.55;;;26.20;60.10;;;;;;5029052;28;20018;-73
2023/06/17 09:01:10;;;;;;;8.52;3.40;;;26.20;61.80;;;;;;5026300;28;20401;-69
2023/06/17 09:03:39;;;;;;;9.63;3.20;;;26.30;58.40;;;;;;5028548;28;20033;-67
2023/06/17 09:06:20;;;;;;;5.30;3.17;;;26.40;58.10;;;;;;5021725;28;20026;-70
2023/06/17 09:08:47;;;;;;;5.80;2.78;;;26.50;58.30;;;;;;5024046;28;20021;-69
2023/06/17 09:11:13;;;;;;;6.38;3.45;;;26.50;60.70;;;;;;5027923;28;20031;-68
2023/06/17 09:13:39;;;;;;;8.32;3.08;;;26.50;59.20;;;;;;5026143;28;20100;-66
2023/06/17 09:16:05;;;;;;;6.05;2.75;;;26.60;58.70;;;;;;5023900;28;20105;-72
2023/06/17 09:18:34;;;;;;;4.90;3.08;;;26.60;58.20;;;;;;5018745;28;20088;-72
2023/06/17 09:21:02;;;;;;;3.92;2.80;;;26.70;57.70;;;;;;5020803;28;20494;-72
2023/06/17 09:23:28;;;;;;;6.68;2.90;;;26.70;57.90;;;;;;5025610;28;20427;-69
2023/06/17 09:26:02;;;;;;;6.05;3.35;;;26.70;57.90;;;;;;5029151;28;20017;-68
2023/06/17 09:28:28;;;;;;;5.38;3.20;;;26.70;57.90;;;;;;5024986;28;20026;-69
2023/06/17 09:30:57;;;;;;;7.47;3.65;;;26.80;57.30;;;;;;5007091;28;20065;-68
2023/06/17 09:33:25;;;;;;;5.18;3.35;;;26.90;56.80;;;;;;5029516;28;20022;-68
2023/06/17 09:36:01;;;;;;;4.45;3.15;;;26.90;57.30;;;;;;5019759;28;20021;-69
2023/06/17 09:38:28;;;;;;;6.78;3.45;;;27.00;57.00;;;;;;5030247;28;20025;-67
2023/06/17 09:40:54;;;;;;;3.50;3.20;;;26.90;57.70;;;;;;5022905;28;20036;-67
2023/06/17 09:43:26;;;;;;;4.32;3.05;;;26.90;57.60;;;;;;5026915;28;20099;-68
2023/06/17 09:46:04;;;;;;;6.10;3.78;;;27.00;58.10;;;;;;5026393;28;20537;-66
2023/06/17 09:48:31;;;;;;;4.93;3.28;;;27.00;57.60;;;;;;5021004;28;20022;-69
2023/06/17 09:50:58;;;;;;;6.32;3.60;;;27.00;59.00;;;;;;5011497;28;20052;-67
2023/06/17 09:53:28;;;;;;;5.10;3.13;;;27.00;58.40;;;;;;5031383;28;20025;-74
2023/06/17 09:55:56;;;;;;;9.10;3.38;;;27.10;58.30;;;;;;5025500;28;20018;-72
2023/06/17 09:58:31;;;;;;;4.53;3.50;;;27.00;58.80;;;;;;5027410;28;20033;-67
2023/06/17 10:01:04;;;;;;;7.53;3.03;;;27.10;60.00;;;;;;5023510;28;20034;-70
2023/06/17 10:03:32;;;;;;;8.75;3.53;;;27.10;58.80;;;;;;5013326;28;20037;-73
2023/06/17 10:06:09;;;;;;;6.22;3.38;;;27.20;58.30;;;;;;5032521;28;20025;-70
2023/06/17 10:08:46;;;;;;;5.32;3.15;;;27.20;58.90;;;;;;5030470;28;20032;-67
2023/06/17 10:11:14;;;;;;;10.43;3.10;;;27.20;58.00;;;;;;5022758;28;20073;-70
2023/06/17 10:13:41;;;;;;;6.10;3.08;;;27.20;60.60;;;;;;5031722;28;20030;-70
2023/06/17 10:16:11;;;;;;;4.90;3.30;;;27.10;60.00;;;;;;5027035;28;20109;-70
2023/06/17 10:18:39;;;;;;;6.32;3.30;;;27.20;58.20;;;;;;5025454;28;20455;-70
2023/06/17 10:21:09;;;;;;;4.43;2.83;;;27.20;59.90;;;;;;5022009;28;20049;-69
2023/06/17 10:23:36;;;;;;;5.15;2.92;;;27.20;61.00;;;;;;5029706;28;20033;-68
2023/06/17 10:26:10;;;;;;;10.77;3.50;;;27.20;60.00;;;;;;5033501;28;20022;-71
2023/06/17 10:29:07;;;;;;;6.60;3.20;;;27.20;61.10;;;;;;5025939;28;20035;-70
2023/06/17 10:31:40;;;;;;;7.63;3.10;;;27.20;61.80;;;;;;5015567;28;20128;-74
2023/06/17 10:34:08;;;;;;;4.30;3.10;;;27.20;60.60;;;;;;5033582;28;20029;-71
2023/06/17 10:36:35;;;;;;;6.07;3.40;;;27.20;60.90;;;;;;5029448;28;20025;-72
2023/06/17 10:39:11;;;;;;;5.25;3.28;;;27.20;61.70;;;;;;5029348;28;20065;-69
2023/06/17 10:41:40;;;;;;;6.72;3.30;;;27.30;61.60;;;;;;5011195;28;20048;-73
2023/06/17 10:44:51;;;;;;;5.65;3.08;;;27.30;61.00;;;;;;5027802;28;20471;-76
2023/06/17 10:47:22;;;;;;;5.93;3.35;;;27.30;61.80;;;;;;5019769;28;20040;-69
2023/06/17 10:49:49;;;;;;;7.03;3.50;;;27.20;62.30;;;;;;5027264;28;20379;-76
2023/06/17 10:52:16;;;;;;;9.00;3.15;;;27.20;62.10;;;;;;5030072;28;20028;-77
2023/06/17 10:54:53;;;;;;;9.40;3.28;;;27.20;61.80;;;;;;5022208;28;20072;-76
2023/06/17 10:57:35;;;;;;;8.90;3.50;;;27.30;62.50;;;;;;5032288;28;20029;-74
2023/06/17 11:00:07;;;;;;;;;;;27.30;62.70;;;;;;5031784;28;20034;-76
2023/06/17 11:02:32;;;;;;;5.22;3.28;;;27.30;62.80;;;;;;5028665;28;19974;-69
2023/06/17 11:05:01;;;;;;;7.55;3.70;;;27.30;63.20;;;;;;5029421;28;20104;-68
2023/06/17 11:07:27;;;;;;;5.32;3.10;;;27.30;63.20;;;;;;5024305;28;20056;-67
2023/06/17 11:09:53;;;;;;;7.45;3.10;;;27.30;62.60;;;;;;5009855;28;20095;-68
2023/06/17 11:12:19;;;;;;;4.60;3.10;;;27.30;62.80;;;;;;5022151;28;20029;-68
2023/06/17 11:15:03;;;;;;;9.43;3.58;;;27.30;62.90;;;;;;5026818;28;20033;-67
2023/06/17 11:17:29;;;;;;;6.10;3.50;;;27.40;63.60;;;;;;5024459;28;20574;-65
2023/06/17 11:19:55;;;;;;;8.30;3.70;;;27.40;63.80;;;;;;5023762;28;20113;-68
2023/06/17 11:22:22;;;;;;;6.57;3.42;;;27.40;64.00;;;;;;5024203;28;20029;-66
2023/06/17 11:24:47;;;;;;;5.78;2.92;;;27.40;62.40;;;;;;5027261;28;20452;-68
2023/06/17 11:27:13;;;;;;;7.45;3.42;;;27.40;63.20;;;;;;5027329;28;20034;-72
2023/06/17 11:29:42;;;;;;;9.23;4.13;;;27.50;63.10;;;;;;5028452;28;20037;-68
2023/06/17 11:32:08;;;;;;;3.70;3.20;;;27.50;61.90;;;;;;5024668;28;20029;-68
2023/06/17 11:34:34;;;;;;;7.63;3.45;;;27.50;60.70;;;;;;5020157;28;20040;-68
2023/06/17 11:37:02;;;;;;;8.13;3.58;;;27.50;61.40;;;;;;5029768;28;20029;-68
2023/06/17 11:39:30;;;;;;;10.63;4.25;;;27.50;62.70;;;;;;5030452;28;20033;-68
2023/06/17 11:42:03;;;;;;;9.85;3.45;;;27.50;62.40;;;;;;5033499;28;20032;-68
2023/06/17 11:44:32;;;;;;;12.60;3.55;;;27.60;62.40;;;;;;5031616;28;20040;-69
2023/06/17 11:47:08;;;;;;;5.82;3.65;;;27.60;63.30;;;;;;5029795;28;20044;-68
2023/06/17 11:49:34;;;;;;;6.47;3.40;;;27.60;63.20;;;;;;5026106;28;20433;-67
2023/06/17 11:52:08;;;;;;;6.32;3.25;;;27.60;63.10;;;;;;5031215;28;20072;-68
2023/06/17 11:54:34;;;;;;;5.82;3.47;;;27.60;61.80;;;;;;5031037;28;20032;-69
2023/06/17 11:57:00;;;;;;;5.95;3.28;;;27.70;61.70;;;;;;5028709;28;20025;-68
2023/06/17 11:59:25;;;;;;;4.85;3.22;;;27.70;59.30;;;;;;5019139;28;20032;-67
2023/06/17 12:01:53;;;;;;;8.98;3.63;;;27.70;59.10;;;;;;5028812;28;20039;-68
2023/06/17 12:04:19;;;;;;;5.63;2.80;;;27.70;60.90;;;;;;5027731;28;20073;-68
2023/06/17 12:06:46;;;;;;;6.50;3.30;;;27.70;62.40;;;;;;5032013;28;20463;-69
2023/06/17 12:09:12;;;;;;;8.40;2.88;;;27.70;61.60;;;;;;5025234;28;20036;-68
2023/06/17 12:11:39;;;;;;;7.47;3.72;;;27.70;61.30;;;;;;5024937;28;20030;-67
2023/06/17 12:14:11;;;;;;;7.07;3.50;;;27.70;62.40;;;;;;5019279;28;20034;-68
2023/06/17 12:16:39;;;;;;;6.93;3.17;;;27.80;59.80;;;;;;5019009;28;20028;-67
2023/06/17 12:19:12;;;;;;;5.07;3.38;;;27.80;59.30;;;;;;5028165;28;20033;-68
2023/06/17 12:21:39;;;;;;;6.13;3.00;;;27.80;59.10;;;;;;5026788;28;20387;-67
2023/06/17 12:24:04;;;;;;;5.75;2.70;;;27.80;60.60;;;;;;5029315;28;20029;-67
2023/06/17 12:26:31;;;;;;;5.18;3.10;;;27.90;60.50;;;;;;5027044;28;20025;-71
2023/06/17 12:28:57;;;;;;;7.82;2.97;;;27.90;61.20;;;;;;5017037;28;20108;-69
2023/06/17 12:31:25;;;;;;;4.70;3.45;;;27.90;61.80;;;;;;5030923;28;20037;-68
2023/06/17 12:33:51;;;;;;;4.70;3.53;;;27.90;60.80;;;;;;5022595;28;20037;-68
2023/06/17 12:36:17;;;;;;;5.18;3.42;;;27.90;60.70;;;;;;5032160;28;20377;-69
2023/06/17 12:38:44;;;;;;;4.22;3.35;;;27.90;59.30;;;;;;5030237;28;20548;-68
2023/06/17 12:41:10;;;;;;;7.35;3.90;;;27.90;60.20;;;;;;5029598;28;20123;-69
2023/06/17 12:43:38;;;;;;;4.75;3.10;;;28.00;61.60;;;;;;5032045;28;20359;-69
2023/06/17 12:46:05;;;;;;;4.72;3.30;;;28.00;61.20;;;;;;5031416;28;20056;-69
2023/06/17 12:48:35;;;;;;;5.00;2.90;;;28.00;61.90;;;;;;5022741;28;20029;-68